createdAt,value
2018-04-15T00:00:21.118Z,2.10
2018-04-15T00:01:26.228Z,2.10
2018-04-15T00:02:21.118Z,2.30
2018-04-15T00:03:21.115Z,2.20
2018-04-15T00:04:21.115Z,2.50
2018-04-15T00:05:21.562Z,2.20
2018-04-15T00:06:21.119Z,2.20
2018-04-15T00:07:39.227Z,2.20
2018-04-15T00:08:21.540Z,2.20
2018-04-15T00:09:21.108Z,2.30
2018-04-15T00:10:21.104Z,2.30
2018-04-15T00:11:21.104Z,2.30
2018-04-15T00:12:23.190Z,2.30
2018-04-15T00:13:21.100Z,2.40
2018-04-15T00:14:21.100Z,2.20
2018-04-15T00:15:21.502Z,2.20
2018-04-15T00:16:21.097Z,2.30
2018-04-15T00:17:28.741Z,2.20
2018-04-15T00:18:21.157Z,2.30
2018-04-15T00:19:21.088Z,2.30
2018-04-15T00:20:21.112Z,2.20
2018-04-15T00:21:22.738Z,2.30
2018-04-15T00:22:21.090Z,2.10
2018-04-15T00:23:21.089Z,2.10
2018-04-15T00:24:21.088Z,2.10
2018-04-15T00:25:21.082Z,2.10
2018-04-15T00:26:21.082Z,2.30
2018-04-15T00:27:42.119Z,2.20
2018-04-15T00:28:21.084Z,2.10
2018-04-15T00:29:21.080Z,2.20
2018-04-15T00:30:21.075Z,2.20
2018-04-15T00:31:21.079Z,2.10
2018-04-15T00:32:37.740Z,2.10
2018-04-15T00:33:21.071Z,2.00
2018-04-15T00:34:21.073Z,2.10
2018-04-15T00:35:21.066Z,2.30
2018-04-15T00:36:21.070Z,2.20
2018-04-15T00:37:45.250Z,2.30
2018-04-15T00:38:21.061Z,2.20
2018-04-15T00:39:21.065Z,2.20
2018-04-15T00:40:21.060Z,2.20
2018-04-15T00:41:21.744Z,2.20
2018-04-15T00:42:21.060Z,2.20
2018-04-15T00:43:21.049Z,2.20
2018-04-15T00:44:21.057Z,2.30
2018-04-15T00:45:21.047Z,2.30
2018-04-15T00:47:52.724Z,2.20
2018-04-15T00:48:52.672Z,2.20
2018-04-15T00:49:52.671Z,2.20
2018-04-15T00:50:52.674Z,2.10
2018-04-15T00:52:18.811Z,2.20
2018-04-15T00:52:52.667Z,2.20
2018-04-15T00:53:52.663Z,2.20
2018-04-15T00:54:52.663Z,1.90
2018-04-15T00:56:21.302Z,2.00
2018-04-15T00:56:52.660Z,2.20
2018-04-15T00:57:52.658Z,2.00
2018-04-15T00:58:52.652Z,1.90
2018-04-15T00:59:52.657Z,2.40
2018-04-15T01:00:52.702Z,2.30
2018-04-15T01:01:52.653Z,2.40
2018-04-15T01:02:52.654Z,2.10
2018-04-15T01:03:52.649Z,2.10
2018-04-15T01:04:52.651Z,2.00
2018-04-15T01:06:00.307Z,2.30
2018-04-15T01:06:52.642Z,2.30
2018-04-15T01:07:52.702Z,2.00
2018-04-15T01:08:52.641Z,2.30
2018-04-15T01:09:52.640Z,2.20
2018-04-15T01:10:52.804Z,2.20
2018-04-15T01:11:52.635Z,2.00
2018-04-15T01:12:52.637Z,2.00
2018-04-15T01:13:52.635Z,2.20
2018-04-15T01:14:52.627Z,2.40
2018-04-15T01:15:52.671Z,2.20
2018-04-15T01:16:52.627Z,2.20
2018-04-15T01:17:52.628Z,2.30
2018-04-15T01:18:52.619Z,2.20
2018-04-15T01:19:52.623Z,2.10
2018-04-15T01:21:03.307Z,2.30
2018-04-15T01:21:52.620Z,2.20
2018-04-15T01:22:52.628Z,2.30
2018-04-15T01:23:52.616Z,2.50
2018-04-15T01:24:52.619Z,2.10
2018-04-15T01:25:57.813Z,2.30
2018-04-15T01:26:52.611Z,2.30
2018-04-15T01:27:52.630Z,2.50
2018-04-15T01:28:52.609Z,2.20
2018-04-15T01:29:52.609Z,2.20
2018-04-15T01:30:52.610Z,2.20
2018-04-15T01:31:53.314Z,2.50
2018-04-15T01:32:52.600Z,2.50
2018-04-15T01:33:52.593Z,2.10
2018-04-15T01:34:52.600Z,2.30
2018-04-15T01:35:53.520Z,2.10
2018-04-15T01:38:54.860Z,2.40
2018-04-15T01:39:24.228Z,2.50
2018-04-15T01:40:24.224Z,2.60
2018-04-15T01:43:06.484Z,2.50
2018-04-15T01:43:55.797Z,2.60
2018-04-15T01:44:55.790Z,2.60
2018-04-15T01:45:55.796Z,2.70
2018-04-15T01:47:30.986Z,2.50
2018-04-15T01:47:55.785Z,2.50
2018-04-15T01:48:56.738Z,2.70
2018-04-15T01:49:55.785Z,2.40
2018-04-15T01:50:55.788Z,2.50
2018-04-15T01:52:16.978Z,2.30
2018-04-15T01:52:55.776Z,2.50
2018-04-15T01:53:55.773Z,2.30
2018-04-15T01:54:55.773Z,2.40
2018-04-15T01:55:56.477Z,2.50
2018-04-15T01:57:00.974Z,2.40
2018-04-15T01:57:55.766Z,2.50
2018-04-15T01:58:55.765Z,2.60
2018-04-15T01:59:55.761Z,2.50
2018-04-15T02:00:55.757Z,2.60
2018-04-15T02:01:58.974Z,2.50
2018-04-15T02:02:55.754Z,2.50
2018-04-15T02:03:55.756Z,2.40
2018-04-15T02:04:55.805Z,2.70
2018-04-15T02:05:55.751Z,2.50
2018-04-15T02:07:19.974Z,2.60
2018-04-15T02:07:56.664Z,2.30
2018-04-15T02:09:01.021Z,2.10
2018-04-15T02:09:55.738Z,2.60
2018-04-15T02:10:57.160Z,2.50
2018-04-15T02:11:58.235Z,2.60
2018-04-15T02:13:00.280Z,2.50
2018-04-15T02:13:58.711Z,2.40
2018-04-15T02:14:58.917Z,2.80
2018-04-15T02:15:59.710Z,2.70
2018-04-15T02:17:30.976Z,2.60
2018-04-15T02:17:57.017Z,2.40
2018-04-15T02:18:55.944Z,2.50
2018-04-15T02:19:58.265Z,2.50
2018-04-15T02:20:56.368Z,2.40
2018-04-15T02:21:58.768Z,2.50
2018-04-15T02:22:57.796Z,2.80
2018-04-15T02:23:57.765Z,2.70
2018-04-15T02:24:58.831Z,2.50
2018-04-15T02:25:55.836Z,2.70
2018-04-15T02:27:02.275Z,2.80
2018-04-15T02:28:00.271Z,2.70
2018-04-15T02:29:00.119Z,2.80
2018-04-15T02:29:56.400Z,2.40
2018-04-15T02:30:57.768Z,2.40
2018-04-15T02:31:57.271Z,2.90
2018-04-15T02:32:55.699Z,2.70
2018-04-15T02:34:11.044Z,3.20
2018-04-15T02:34:55.693Z,3.00
2018-04-15T02:35:56.956Z,2.90
2018-04-15T02:36:56.498Z,2.70
2018-04-15T02:37:58.719Z,2.70
2018-04-15T02:40:34.752Z,2.60
2018-04-15T02:41:31.720Z,2.70
2018-04-15T02:42:29.210Z,2.70
2018-04-15T02:43:28.936Z,2.60
2018-04-15T02:44:30.440Z,2.70
2018-04-15T02:45:30.738Z,2.60
2018-04-15T02:46:27.413Z,2.80
2018-04-15T02:47:28.547Z,2.80
2018-04-15T02:48:29.445Z,2.90
2018-04-15T02:49:27.503Z,2.80
2018-04-15T02:50:30.114Z,3.10
2018-04-15T02:51:28.727Z,3.00
2018-04-15T02:52:27.832Z,3.20
2018-04-15T02:53:53.631Z,2.70
2018-04-15T02:54:28.477Z,3.20
2018-04-15T02:55:27.491Z,3.70
2018-04-15T02:56:29.280Z,3.10
2018-04-15T02:57:27.945Z,3.00
2018-04-15T02:58:27.297Z,3.20
2018-04-15T02:59:41.430Z,3.30
2018-04-15T03:00:27.359Z,3.70
2018-04-15T03:01:27.282Z,3.60
2018-04-15T03:02:27.289Z,3.20
2018-04-15T03:03:27.682Z,3.40
2018-04-15T03:04:37.922Z,3.20
2018-04-15T03:05:27.270Z,3.30
2018-04-15T03:06:27.308Z,2.60
2018-04-15T03:07:27.305Z,2.90
2018-04-15T03:08:27.264Z,3.20
2018-04-15T03:09:27.930Z,3.10
2018-04-15T03:10:27.259Z,3.20
2018-04-15T03:11:27.254Z,3.00
2018-04-15T03:12:27.247Z,3.00
2018-04-15T03:13:27.251Z,3.20
2018-04-15T03:14:27.246Z,2.90
2018-04-15T03:15:53.422Z,3.20
2018-04-15T03:16:27.246Z,3.20
2018-04-15T03:17:27.238Z,3.00
2018-04-15T03:18:27.236Z,3.50
2018-04-15T03:19:27.239Z,4.20
2018-04-15T03:20:32.531Z,3.80
2018-04-15T03:21:27.257Z,3.80
2018-04-15T03:22:27.220Z,3.10
2018-04-15T03:23:27.223Z,3.20
2018-04-15T03:24:27.220Z,2.80
2018-04-15T03:25:32.426Z,3.00
2018-04-15T03:26:27.216Z,3.20
2018-04-15T03:27:27.456Z,2.90
2018-04-15T03:28:27.208Z,2.70
2018-04-15T03:29:27.204Z,2.80
2018-04-15T03:31:59.955Z,2.80
2018-04-15T03:32:58.758Z,2.50
2018-04-15T03:33:58.753Z,2.60
2018-04-15T03:34:58.750Z,2.50
2018-04-15T03:36:03.951Z,2.80
2018-04-15T03:36:58.744Z,2.90
2018-04-15T03:37:58.739Z,2.60
2018-04-15T03:38:58.739Z,2.40
2018-04-15T03:39:58.728Z,2.70
2018-04-15T03:42:30.400Z,2.60
2018-04-15T03:43:30.360Z,2.60
2018-04-15T03:44:30.359Z,2.70
2018-04-15T03:45:40.984Z,2.80
2018-04-15T03:46:30.347Z,3.10
2018-04-15T03:47:30.348Z,2.80
2018-04-15T03:48:30.349Z,2.90
2018-04-15T03:49:30.339Z,2.70
2018-04-15T03:52:09.593Z,2.70
2018-04-15T03:53:01.957Z,2.70
2018-04-15T03:54:02.092Z,2.60
2018-04-15T03:55:28.096Z,2.80
2018-04-15T03:56:01.978Z,3.30
2018-04-15T03:57:01.945Z,2.90
2018-04-15T03:58:01.942Z,3.00
2018-04-15T03:59:01.942Z,3.10
2018-04-15T04:00:24.595Z,2.50
2018-04-15T04:01:01.938Z,2.90
2018-04-15T04:02:01.936Z,2.60
2018-04-15T04:03:01.936Z,2.50
2018-04-15T04:04:01.927Z,2.80
2018-04-15T04:05:09.593Z,2.90
2018-04-15T04:06:01.917Z,2.60
2018-04-15T04:07:02.384Z,2.60
2018-04-15T04:08:02.250Z,2.30
2018-04-15T04:09:01.913Z,2.10
2018-04-15T04:10:02.083Z,2.40
2018-04-15T04:11:01.907Z,2.80
2018-04-15T04:12:02.466Z,2.90
2018-04-15T04:13:01.898Z,2.70
2018-04-15T04:14:01.945Z,2.50
2018-04-15T04:15:01.947Z,2.80
2018-04-15T04:16:01.889Z,2.70
2018-04-15T04:17:01.889Z,2.50
2018-04-15T04:18:01.895Z,2.50
2018-04-15T04:19:01.888Z,2.40
2018-04-15T04:20:03.599Z,2.30
2018-04-15T04:21:01.879Z,2.30
2018-04-15T04:22:01.879Z,2.20
2018-04-15T04:23:01.870Z,2.50
2018-04-15T04:24:01.871Z,2.60
2018-04-15T04:25:02.086Z,2.80
2018-04-15T04:26:01.864Z,3.30
2018-04-15T04:27:01.864Z,2.80
2018-04-15T04:28:01.858Z,2.70
2018-04-15T04:29:01.855Z,3.20
2018-04-15T04:30:05.088Z,3.10
2018-04-15T04:31:01.854Z,3.00
2018-04-15T04:32:01.915Z,3.10
2018-04-15T04:33:01.855Z,3.20
2018-04-15T04:34:01.841Z,3.30
2018-04-15T04:35:02.591Z,3.40
2018-04-15T04:36:02.217Z,3.50
2018-04-15T04:37:01.835Z,3.30
2018-04-15T04:38:01.830Z,2.80
2018-04-15T04:39:01.825Z,2.80
2018-04-15T04:40:01.865Z,3.00
2018-04-15T04:41:01.820Z,3.00
2018-04-15T04:42:01.814Z,2.90
2018-04-15T04:43:01.815Z,3.10
2018-04-15T04:44:01.814Z,3.50
2018-04-15T04:45:02.611Z,4.10
2018-04-15T04:46:01.804Z,3.50
2018-04-15T04:47:01.811Z,3.50
2018-04-15T04:48:01.807Z,4.00
2018-04-15T04:49:01.795Z,4.50
2018-04-15T04:50:07.085Z,5.50
2018-04-15T04:51:01.793Z,8.60
2018-04-15T04:52:01.789Z,7.40
2018-04-15T04:53:02.416Z,13.90
2018-04-15T04:54:01.789Z,6.20
2018-04-15T04:55:22.825Z,4.60
2018-04-15T04:56:01.777Z,5.40
2018-04-15T04:57:01.773Z,3.90
2018-04-15T04:58:02.448Z,3.90
2018-04-15T04:59:01.769Z,3.80
2018-04-15T05:00:30.596Z,3.70
2018-04-15T05:01:02.337Z,3.50
2018-04-15T05:02:01.765Z,3.90
2018-04-15T05:03:01.757Z,4.00
2018-04-15T05:04:01.755Z,4.00
2018-04-15T05:05:01.799Z,3.70
2018-04-15T05:06:01.750Z,3.50
2018-04-15T05:07:01.750Z,3.70
2018-04-15T05:08:01.746Z,3.50
2018-04-15T05:09:01.744Z,4.60
2018-04-15T05:10:09.580Z,8.70
2018-04-15T05:11:01.738Z,65.00
2018-04-15T05:12:01.735Z,89.70
2018-04-15T05:13:01.733Z,47.90
2018-04-15T05:14:01.729Z,214.70
2018-04-15T05:15:28.089Z,127.60
2018-04-15T05:16:01.731Z,124.30
2018-04-15T05:17:01.749Z,144.80
2018-04-15T05:18:01.723Z,184.80
2018-04-15T05:19:01.722Z,204.90
2018-04-15T05:20:23.590Z,190.40
2018-04-15T05:21:01.715Z,181.00
2018-04-15T05:22:01.713Z,217.70
2018-04-15T05:23:01.711Z,198.40
2018-04-15T05:24:01.705Z,81.40
2018-04-15T05:25:23.448Z,33.20
2018-04-15T05:26:02.478Z,23.40
2018-04-15T05:27:01.702Z,18.30
2018-04-15T05:28:01.702Z,21.10
2018-04-15T05:29:01.698Z,11.00
2018-04-15T05:30:03.588Z,6.40
2018-04-15T05:31:01.693Z,6.00
2018-04-15T05:32:01.698Z,12.30
2018-04-15T05:33:01.689Z,13.80
2018-04-15T05:34:01.691Z,10.50
2018-04-15T05:35:07.100Z,9.10
2018-04-15T05:36:01.688Z,9.10
2018-04-15T05:37:01.686Z,9.20
2018-04-15T05:38:01.679Z,7.80
2018-04-15T05:39:01.688Z,7.90
2018-04-15T05:40:20.114Z,7.80
2018-04-15T05:41:01.683Z,8.00
2018-04-15T05:42:01.678Z,7.50
2018-04-15T05:43:01.681Z,7.40
2018-04-15T05:44:01.675Z,7.10
2018-04-15T05:45:02.415Z,7.30
2018-04-15T05:46:02.101Z,6.30
2018-04-15T05:47:01.675Z,7.40
2018-04-15T05:48:01.671Z,8.70
2018-04-15T05:49:01.671Z,9.20
2018-04-15T05:50:01.670Z,9.50
2018-04-15T05:51:02.107Z,9.40
2018-04-15T05:52:01.665Z,8.70
2018-04-15T05:53:01.664Z,8.10
2018-04-15T05:54:01.668Z,7.50
2018-04-15T05:55:01.668Z,6.30
2018-04-15T05:56:16.103Z,5.30
2018-04-15T05:57:01.663Z,4.90
2018-04-15T05:58:01.663Z,4.00
2018-04-15T05:59:01.661Z,3.60
2018-04-15T06:00:01.665Z,3.90
2018-04-15T06:01:20.116Z,3.90
2018-04-15T06:02:01.663Z,3.90
2018-04-15T06:03:01.665Z,3.60
2018-04-15T06:04:01.665Z,3.20
2018-04-15T06:05:01.656Z,3.30
2018-04-15T06:06:02.588Z,2.80
2018-04-15T06:07:01.659Z,3.00
2018-04-15T06:08:01.659Z,2.80
2018-04-15T06:09:01.660Z,2.70
2018-04-15T06:10:01.656Z,2.90
2018-04-15T06:11:02.588Z,2.60
2018-04-15T06:12:01.741Z,2.70
2018-04-15T06:13:01.660Z,3.40
2018-04-15T06:14:01.667Z,3.20
2018-04-15T06:15:01.668Z,3.10
2018-04-15T06:16:22.716Z,3.20
2018-04-15T06:17:01.660Z,3.60
2018-04-15T06:18:01.660Z,3.70
2018-04-15T06:19:01.662Z,3.50
2018-04-15T06:20:02.344Z,3.70
2018-04-15T06:21:01.661Z,4.00
2018-04-15T06:22:02.169Z,3.90
2018-04-15T06:23:01.664Z,3.70
2018-04-15T06:24:01.662Z,4.00
2018-04-15T06:25:01.666Z,4.50
2018-04-15T06:26:01.666Z,3.70
2018-04-15T06:27:01.781Z,4.00
2018-04-15T06:28:01.665Z,3.80
2018-04-15T06:29:01.662Z,3.80
2018-04-15T06:30:01.667Z,3.60
2018-04-15T06:31:01.662Z,3.90
2018-04-15T06:32:02.212Z,3.90
2018-04-15T06:33:01.717Z,4.30
2018-04-15T06:34:01.668Z,4.20
2018-04-15T06:35:01.671Z,4.20
2018-04-15T06:36:01.668Z,5.20
2018-04-15T06:37:02.108Z,5.60
2018-04-15T06:38:02.216Z,5.80
2018-04-15T06:39:01.676Z,5.50
2018-04-15T06:40:01.676Z,5.00
2018-04-15T06:41:01.676Z,5.10
2018-04-15T06:42:01.727Z,5.10
2018-04-15T06:43:02.617Z,5.30
2018-04-15T06:44:01.681Z,5.00
2018-04-15T06:45:01.683Z,4.80
2018-04-15T06:46:01.682Z,4.80
2018-04-15T06:47:05.091Z,4.40
2018-04-15T06:48:01.685Z,4.50
2018-04-15T06:49:01.681Z,4.50
2018-04-15T06:50:01.690Z,4.40
2018-04-15T06:51:01.689Z,4.70
2018-04-15T06:52:01.857Z,5.00
2018-04-15T06:53:01.697Z,4.40
2018-04-15T06:54:01.697Z,4.70
2018-04-15T06:55:01.701Z,4.50
2018-04-15T06:56:01.699Z,4.70
2018-04-15T06:57:16.138Z,4.70
2018-04-15T06:58:01.707Z,5.40
2018-04-15T06:59:01.702Z,5.40
2018-04-15T07:00:02.146Z,5.50
2018-04-15T07:01:03.594Z,5.60
2018-04-15T07:02:01.716Z,5.70
2018-04-15T07:03:01.713Z,5.70
2018-04-15T07:04:01.713Z,5.80
2018-04-15T07:05:01.715Z,5.30
2018-04-15T07:06:07.113Z,5.00
2018-04-15T07:07:01.726Z,4.60
2018-04-15T07:08:01.731Z,4.40
2018-04-15T07:09:01.729Z,4.30
2018-04-15T07:10:01.738Z,4.30
2018-04-15T07:11:02.132Z,4.10
2018-04-15T07:12:01.739Z,4.50
2018-04-15T07:13:01.754Z,3.90
2018-04-15T07:14:01.752Z,3.90
2018-04-15T07:15:01.764Z,4.10
2018-04-15T07:16:02.091Z,3.90
2018-04-15T07:17:01.764Z,4.20
2018-04-15T07:18:01.769Z,4.50
2018-04-15T07:19:01.774Z,5.40
2018-04-15T07:20:01.780Z,5.20
2018-04-15T07:21:02.595Z,5.40
2018-04-15T07:22:01.784Z,5.20
2018-04-15T07:23:01.789Z,5.60
2018-04-15T07:24:01.793Z,5.70
2018-04-15T07:25:01.796Z,5.30
2018-04-15T07:26:03.595Z,5.00
2018-04-15T07:27:01.808Z,5.20
2018-04-15T07:28:01.815Z,5.20
2018-04-15T07:29:01.821Z,5.40
2018-04-15T07:30:01.826Z,5.20
2018-04-15T07:31:03.598Z,4.90
2018-04-15T07:32:01.831Z,5.10
2018-04-15T07:33:01.844Z,4.90
2018-04-15T07:34:01.844Z,5.30
2018-04-15T07:35:01.847Z,4.70
2018-04-15T07:36:23.134Z,5.60
2018-04-15T07:37:01.857Z,5.10
2018-04-15T07:38:01.862Z,5.40
2018-04-15T07:39:02.268Z,5.00
2018-04-15T07:40:01.882Z,5.20
2018-04-15T07:42:54.452Z,4.60
2018-04-15T07:43:33.457Z,5.30
2018-04-15T07:44:33.466Z,4.80
2018-04-15T07:45:33.478Z,4.30
2018-04-15T07:46:41.149Z,4.70
2018-04-15T07:47:33.485Z,4.50
2018-04-15T07:48:33.490Z,4.80
2018-04-15T07:49:33.974Z,4.20
2018-04-15T07:50:33.508Z,4.40
2018-04-15T07:51:36.649Z,4.40
2018-04-15T07:52:33.517Z,4.20
2018-04-15T07:53:33.523Z,4.50
2018-04-15T07:54:33.530Z,4.20
2018-04-15T07:55:33.535Z,4.50
2018-04-15T07:56:54.646Z,4.50
2018-04-15T07:57:33.554Z,4.40
2018-04-15T07:58:33.558Z,4.30
2018-04-15T07:59:33.570Z,4.30
2018-04-15T08:00:33.572Z,4.80
2018-04-15T08:01:35.155Z,4.40
2018-04-15T08:02:33.677Z,4.80
2018-04-15T08:03:33.598Z,4.70
2018-04-15T08:04:33.603Z,4.40
2018-04-15T08:05:33.614Z,4.70
2018-04-15T08:06:52.146Z,4.70
2018-04-15T08:07:33.629Z,4.80
2018-04-15T08:08:33.635Z,4.60
2018-04-15T08:09:33.639Z,4.30
2018-04-15T08:10:33.651Z,4.40
2018-04-15T08:11:37.144Z,4.30
2018-04-15T08:12:33.669Z,4.40
2018-04-15T08:13:33.676Z,4.60
2018-04-15T08:14:33.682Z,4.50
2018-04-15T08:15:33.695Z,4.40
2018-04-15T08:18:27.364Z,4.30
2018-04-15T08:19:05.331Z,4.30
2018-04-15T08:20:05.343Z,4.50
2018-04-15T08:21:05.353Z,4.50
2018-04-15T08:26:44.796Z,4.60
2018-04-15T08:27:40.380Z,4.50
2018-04-15T08:28:40.388Z,4.90
2018-04-15T08:29:40.400Z,4.80
2018-04-15T08:30:40.404Z,4.80
2018-04-15T08:31:40.415Z,4.70
2018-04-15T08:34:15.203Z,5.20
2018-04-15T08:35:12.008Z,4.60
2018-04-15T08:36:12.012Z,4.40
2018-04-15T08:37:13.703Z,4.80
2018-04-15T08:38:12.416Z,4.60
2018-04-15T08:39:13.411Z,4.70
2018-04-15T08:40:12.051Z,5.00
2018-04-15T08:41:12.064Z,4.80
2018-04-15T08:42:47.209Z,4.50
2018-04-15T08:43:12.125Z,4.90
2018-04-15T08:44:12.096Z,4.70
2018-04-15T08:45:12.104Z,4.70
2018-04-15T08:46:12.122Z,4.60
2018-04-15T08:50:41.470Z,4.80
2018-04-15T08:51:15.361Z,4.70
2018-04-15T08:52:15.415Z,4.60
2018-04-15T08:53:15.651Z,4.40
2018-04-15T08:54:15.398Z,4.90
2018-04-15T08:55:15.403Z,4.60
2018-04-15T08:56:15.415Z,4.90
2018-04-15T08:57:16.990Z,4.90
2018-04-15T08:58:15.442Z,5.00
2018-04-15T08:59:15.457Z,5.20
2018-04-15T09:00:15.466Z,4.70
2018-04-15T09:01:15.467Z,5.10
2018-04-15T09:02:36.530Z,5.10
2018-04-15T09:03:15.499Z,4.80
2018-04-15T09:04:15.503Z,8.20
2018-04-15T09:05:15.520Z,5.80
2018-04-15T09:06:20.989Z,5.10
2018-04-15T09:07:15.534Z,5.20
2018-04-15T09:08:15.548Z,5.50
2018-04-15T09:09:16.543Z,5.20
2018-04-15T09:10:15.690Z,4.70
2018-04-15T09:11:51.001Z,5.10
2018-04-15T09:12:15.611Z,5.10
2018-04-15T09:13:15.837Z,5.10
2018-04-15T09:14:15.627Z,5.30
2018-04-15T09:15:15.618Z,5.10
2018-04-15T09:16:16.031Z,4.90
2018-04-15T09:17:15.684Z,5.10
2018-04-15T09:18:15.697Z,5.10
2018-04-15T09:19:17.809Z,5.10
2018-04-15T09:20:17.469Z,5.20
2018-04-15T09:21:16.040Z,4.80
2018-04-15T09:22:15.900Z,4.60
2018-04-15T09:23:15.819Z,4.70
2018-04-15T09:24:16.911Z,4.70
2018-04-15T09:25:17.934Z,4.60
2018-04-15T09:26:15.862Z,5.20
2018-04-15T09:27:15.812Z,5.20
2018-04-15T09:28:15.784Z,4.90
2018-04-15T09:29:15.796Z,5.00
2018-04-15T09:30:15.808Z,4.60
2018-04-15T09:31:16.510Z,5.20
2018-04-15T09:32:15.836Z,4.80
2018-04-15T09:33:15.851Z,4.90
2018-04-15T09:34:15.864Z,4.60
2018-04-15T09:35:15.894Z,5.00
2018-04-15T09:36:36.988Z,4.50
2018-04-15T09:37:15.911Z,4.50
2018-04-15T09:38:16.179Z,4.30
2018-04-15T09:39:15.944Z,4.40
2018-04-15T09:40:24.010Z,4.30
2018-04-15T09:41:15.978Z,4.60
2018-04-15T09:42:16.720Z,4.20
2018-04-15T09:43:16.014Z,4.20
2018-04-15T09:44:16.636Z,4.50
2018-04-15T09:45:24.000Z,4.30
2018-04-15T09:46:16.064Z,5.00
2018-04-15T09:47:16.079Z,4.40
2018-04-15T09:48:16.112Z,4.70
2018-04-15T09:49:16.112Z,4.80
2018-04-15T09:50:16.564Z,4.70
2018-04-15T09:51:34.508Z,4.50
2018-04-15T09:52:16.169Z,4.60
2018-04-15T09:53:16.188Z,4.40
2018-04-15T09:54:16.204Z,4.50
2018-04-15T09:55:16.222Z,4.20
2018-04-15T09:56:16.542Z,4.30
2018-04-15T09:57:16.262Z,4.30
2018-04-15T09:58:16.282Z,4.00
2018-04-15T09:59:16.322Z,3.90
2018-04-15T10:00:16.323Z,3.70
2018-04-15T10:01:16.376Z,4.20
2018-04-15T10:02:16.355Z,3.70
2018-04-15T10:03:16.383Z,4.20
2018-04-15T10:04:16.576Z,4.10
2018-04-15T10:05:16.408Z,3.80
2018-04-15T10:06:16.493Z,3.80
2018-04-15T10:07:16.454Z,4.10
2018-04-15T10:08:16.478Z,4.20
2018-04-15T10:09:16.496Z,4.00
2018-04-15T10:10:16.513Z,3.90
2018-04-15T10:11:18.519Z,3.80
2018-04-15T10:12:16.575Z,4.20
2018-04-15T10:13:16.566Z,4.10
2018-04-15T10:14:16.582Z,4.00
2018-04-15T10:15:16.599Z,4.10
2018-04-15T10:16:17.006Z,3.70
2018-04-15T10:17:16.636Z,4.00
2018-04-15T10:18:16.653Z,3.70
2018-04-15T10:19:16.676Z,3.60
2018-04-15T10:20:16.708Z,4.00
2018-04-15T10:21:18.513Z,3.80
2018-04-15T10:22:16.731Z,3.80
2018-04-15T10:23:16.752Z,3.90
2018-04-15T10:24:16.977Z,3.90
2018-04-15T10:25:16.789Z,3.60
2018-04-15T10:26:16.845Z,3.90
2018-04-15T10:28:49.078Z,3.70
2018-04-15T10:29:48.524Z,4.00
2018-04-15T10:30:48.540Z,4.10
2018-04-15T10:31:59.592Z,3.70
2018-04-15T10:32:48.584Z,4.00
2018-04-15T10:33:48.597Z,3.70
2018-04-15T10:34:48.620Z,3.80
2018-04-15T10:35:48.642Z,3.90
2018-04-15T10:36:49.104Z,3.90
2018-04-15T10:37:48.679Z,3.80
2018-04-15T10:38:48.718Z,3.70
2018-04-15T10:39:48.715Z,3.80
2018-04-15T10:40:48.734Z,4.20
2018-04-15T10:41:49.099Z,3.90
2018-04-15T10:42:48.771Z,4.20
2018-04-15T10:43:48.790Z,4.10
2018-04-15T10:44:48.827Z,4.00
2018-04-15T10:45:48.811Z,4.30
2018-04-15T10:46:52.104Z,4.00
2018-04-15T10:47:48.855Z,4.00
2018-04-15T10:48:48.942Z,4.00
2018-04-15T10:49:48.886Z,4.40
2018-04-15T10:50:48.896Z,4.20
2018-04-15T10:51:50.616Z,4.20
2018-04-15T10:52:49.549Z,4.30
2018-04-15T10:53:48.948Z,4.20
2018-04-15T10:54:48.963Z,4.10
2018-04-15T10:55:48.972Z,4.20
2018-04-15T10:56:49.045Z,3.90
2018-04-15T10:57:49.005Z,4.20
2018-04-15T10:58:49.017Z,4.00
2018-04-15T10:59:49.050Z,4.10
2018-04-15T11:00:49.046Z,3.90
2018-04-15T11:01:56.627Z,3.90
2018-04-15T11:02:49.078Z,3.80
2018-04-15T11:03:49.090Z,3.90
2018-04-15T11:04:49.104Z,4.20
2018-04-15T11:05:49.616Z,4.00
2018-04-15T11:06:49.622Z,4.00
2018-04-15T11:07:49.150Z,3.70
2018-04-15T11:08:49.167Z,3.80
2018-04-15T11:09:49.179Z,3.80
2018-04-15T11:10:49.196Z,3.80
2018-04-15T11:11:51.111Z,3.70
2018-04-15T11:12:50.067Z,3.80
2018-04-15T11:13:49.243Z,3.50
2018-04-15T11:14:49.253Z,3.40
2018-04-15T11:15:50.067Z,3.60
2018-04-15T11:16:49.327Z,3.40
2018-04-15T11:17:49.403Z,3.60
2018-04-15T11:18:49.316Z,3.60
2018-04-15T11:19:49.336Z,3.70
2018-04-15T11:20:49.356Z,3.40
2018-04-15T11:22:03.622Z,3.60
2018-04-15T11:22:50.179Z,3.70
2018-04-15T11:23:49.967Z,3.60
2018-04-15T11:24:49.430Z,2.80
2018-04-15T11:25:50.449Z,3.20
2018-04-15T11:26:49.484Z,2.90
2018-04-15T11:27:49.481Z,3.00
2018-04-15T11:28:49.495Z,3.40
2018-04-15T11:29:49.514Z,3.10
2018-04-15T11:35:24.854Z,2.50
2018-04-15T11:36:29.637Z,2.80
2018-04-15T11:37:26.431Z,2.20
2018-04-15T11:38:24.604Z,2.10
2018-04-15T11:39:24.585Z,2.10
2018-04-15T11:40:24.604Z,2.20
2018-04-15T11:42:57.421Z,1.90
2018-04-15T11:43:56.282Z,1.80
2018-04-15T11:44:56.281Z,1.60
2018-04-15T11:45:56.418Z,1.40
2018-04-15T11:46:56.328Z,1.40
2018-04-15T11:47:56.457Z,1.30
2018-04-15T11:48:56.374Z,1.30
2018-04-15T11:49:56.390Z,1.50
2018-04-15T11:50:56.948Z,1.20
2018-04-15T11:51:56.453Z,1.20
2018-04-15T11:52:56.447Z,1.40
2018-04-15T11:53:56.468Z,1.60
2018-04-15T11:54:56.491Z,1.30
2018-04-15T11:55:56.559Z,1.20
2018-04-15T11:56:56.529Z,1.20
2018-04-15T11:57:56.557Z,1.40
2018-04-15T11:58:56.572Z,1.40
2018-04-15T11:59:56.599Z,1.30
2018-04-15T12:00:56.660Z,2.70
2018-04-15T12:01:56.641Z,1.00
2018-04-15T12:02:56.825Z,1.00
2018-04-15T12:03:56.697Z,1.10
2018-04-15T12:04:56.700Z,1.10
2018-04-15T12:05:57.716Z,0.90
2018-04-15T12:06:56.754Z,1.00
2018-04-15T12:07:56.786Z,0.70
2018-04-15T12:08:56.779Z,0.70
2018-04-15T12:09:56.805Z,0.80
2018-04-15T12:10:59.061Z,0.70
2018-04-15T12:11:56.841Z,0.80
2018-04-15T12:12:56.855Z,0.90
2018-04-15T12:13:57.874Z,0.90
2018-04-15T12:14:56.910Z,1.00
2018-04-15T12:15:57.037Z,0.90
2018-04-15T12:16:56.941Z,0.90
2018-04-15T12:17:56.958Z,20.70
2018-04-15T12:18:56.985Z,2.00
2018-04-15T12:19:56.998Z,2.10
2018-04-15T12:20:57.015Z,1.90
2018-04-15T12:21:58.926Z,2.00
2018-04-15T12:22:57.056Z,4.40
2018-04-15T12:23:57.075Z,1.30
2018-04-15T12:24:57.095Z,1.40
2018-04-15T12:25:57.168Z,1.50
2018-04-15T12:26:57.429Z,1.30
2018-04-15T12:27:57.157Z,1.20
2018-04-15T12:28:57.177Z,1.30
2018-04-15T12:29:57.197Z,1.30
2018-04-15T12:31:23.766Z,1.20
2018-04-15T12:31:57.242Z,1.40
2018-04-15T12:32:57.260Z,16.80
2018-04-15T12:33:58.079Z,2.20
2018-04-15T12:34:57.298Z,2.20
2018-04-15T12:35:58.923Z,2.00
2018-04-15T12:37:11.416Z,2.40
2018-04-15T12:37:57.377Z,2.00
2018-04-15T12:38:57.381Z,1.80
2018-04-15T12:39:58.384Z,1.80
2018-04-15T12:40:57.495Z,1.50
2018-04-15T12:42:02.938Z,1.70
2018-04-15T12:42:57.471Z,1.70
2018-04-15T12:43:57.501Z,1.50
2018-04-15T12:44:58.320Z,1.70
2018-04-15T12:45:57.541Z,1.20
2018-04-15T12:46:58.395Z,1.10
2018-04-15T12:47:58.263Z,1.00
2018-04-15T12:48:58.413Z,1.00
2018-04-15T12:49:57.637Z,0.80
2018-04-15T12:50:57.786Z,1.00
2018-04-15T12:52:00.721Z,1.10
2018-04-15T12:53:00.722Z,1.10
2018-04-15T12:53:57.867Z,1.00
2018-04-15T12:55:02.231Z,1.20
2018-04-15T12:55:59.531Z,1.20
2018-04-15T12:56:57.816Z,1.00
2018-04-15T12:57:57.834Z,0.90
2018-04-15T12:58:57.839Z,1.00
2018-04-15T12:59:59.229Z,0.90
2018-04-15T13:02:31.756Z,1.00
2018-04-15T13:03:29.869Z,1.00
2018-04-15T13:04:29.898Z,0.90
2018-04-15T13:05:30.759Z,0.80
2018-04-15T13:06:50.984Z,0.90
2018-04-15T13:07:29.965Z,1.00
2018-04-15T13:08:31.544Z,1.00
2018-04-15T13:09:30.949Z,1.00
2018-04-15T13:10:51.653Z,1.00
2018-04-15T13:11:30.064Z,1.00
2018-04-15T13:12:31.489Z,1.00
2018-04-15T13:13:31.946Z,1.10
2018-04-15T13:14:30.137Z,1.20
2018-04-15T13:15:30.214Z,1.10
2018-04-15T13:16:31.116Z,1.00
2018-04-15T13:17:30.189Z,1.00
2018-04-15T13:18:30.226Z,1.20
2018-04-15T13:19:30.248Z,1.10
2018-04-15T13:20:32.162Z,1.10
2018-04-15T13:21:30.282Z,1.30
2018-04-15T13:22:30.311Z,1.20
2018-04-15T13:23:30.344Z,1.40
2018-04-15T13:24:30.345Z,1.30
2018-04-15T13:25:30.741Z,1.00
2018-04-15T13:26:30.377Z,1.20
2018-04-15T13:27:30.434Z,1.00
2018-04-15T13:28:30.438Z,1.10
2018-04-15T13:29:30.453Z,1.20
2018-04-15T13:30:30.482Z,1.00
2018-04-15T13:31:45.509Z,1.00
2018-04-15T13:32:30.518Z,1.20
2018-04-15T13:33:30.549Z,1.30
2018-04-15T13:34:30.939Z,1.00
2018-04-15T13:35:30.665Z,1.20
2018-04-15T13:36:30.580Z,1.10
2018-04-15T13:37:30.619Z,1.10
2018-04-15T13:38:30.648Z,1.10
2018-04-15T13:39:30.663Z,1.10
2018-04-15T13:42:02.457Z,1.10
2018-04-15T13:43:02.374Z,1.10
2018-04-15T13:44:02.399Z,1.00
2018-04-15T13:45:02.411Z,1.20
2018-04-15T13:46:02.950Z,0.90
2018-04-15T13:47:02.473Z,1.00
2018-04-15T13:48:02.490Z,0.80
2018-04-15T13:49:02.508Z,1.00
2018-04-15T13:50:02.524Z,1.10
2018-04-15T13:52:34.221Z,1.00